createdAt,value
2023-03-26T00:01:38.712Z,4.20
2023-03-26T00:04:06.784Z,3.90
2023-03-26T00:06:38.626Z,4.35
2023-03-26T00:09:07.749Z,3.67
2023-03-26T00:11:34.589Z,3.97
2023-03-26T00:14:02.653Z,4.47
2023-03-26T00:16:31.020Z,4.05
2023-03-26T00:18:58.044Z,4.22
2023-03-26T00:21:27.793Z,4.20
2023-03-26T00:23:59.846Z,3.85
2023-03-26T00:26:27.324Z,3.70
2023-03-26T00:28:54.393Z,3.80
2023-03-26T00:31:20.989Z,3.80
2023-03-26T00:33:47.716Z,3.25
2023-03-26T00:36:17.190Z,2.85
2023-03-26T00:38:45.059Z,2.92
2023-03-26T00:41:17.798Z,3.30
2023-03-26T00:43:48.811Z,3.72
2023-03-26T00:46:17.475Z,3.60
2023-03-26T00:48:46.004Z,3.70
2023-03-26T00:51:17.736Z,4.15
2023-03-26T00:53:45.613Z,3.87
2023-03-26T00:56:12.597Z,4.10
2023-03-26T00:58:39.223Z,4.28
2023-03-26T01:01:14.455Z,4.03
2023-03-26T01:03:53.211Z,4.00
2023-03-26T01:06:32.817Z,3.92
2023-03-26T01:09:04.514Z,4.38
2023-03-26T01:11:32.767Z,4.00
2023-03-26T01:14:11.478Z,3.80
2023-03-26T01:16:55.389Z,4.40
2023-03-26T01:19:39.791Z,3.95
2023-03-26T01:22:11.018Z,3.63
2023-03-26T01:24:39.173Z,4.28
2023-03-26T01:27:14.764Z,3.63
2023-03-26T01:29:58.301Z,3.85
2023-03-26T01:33:03.699Z,4.43
2023-03-26T01:36:04.532Z,3.92
2023-03-26T01:38:48.129Z,4.95
2023-03-26T01:41:54.611Z,5.10
2023-03-26T01:44:42.793Z,4.25
2023-03-26T01:47:09.703Z,4.25
2023-03-26T01:49:36.336Z,4.40
2023-03-26T01:52:02.854Z,4.70
2023-03-26T01:54:31.269Z,4.70
2023-03-26T01:57:12.319Z,5.28
2023-03-26T01:59:52.464Z,4.68
2023-03-26T02:02:28.846Z,5.65
2023-03-26T02:05:32.328Z,5.90
2023-03-26T02:08:06.154Z,5.82
2023-03-26T02:10:36.641Z,5.78
2023-03-26T02:13:03.239Z,6.35
2023-03-26T02:15:29.687Z,5.63
2023-03-26T02:17:56.124Z,5.95
2023-03-26T02:20:22.689Z,6.38
2023-03-26T02:22:49.126Z,6.40
2023-03-26T02:25:18.450Z,6.03
2023-03-26T02:27:45.408Z,5.70
2023-03-26T02:30:17.520Z,6.30
2023-03-26T02:32:44.147Z,6.20
2023-03-26T02:35:11.907Z,5.90
2023-03-26T02:37:38.979Z,5.25
2023-03-26T02:40:11.041Z,5.45
2023-03-26T02:42:37.931Z,4.97
2023-03-26T02:45:06.044Z,5.68
2023-03-26T02:47:33.583Z,5.53
2023-03-26T02:50:00.000Z,5.13
2023-03-26T02:52:26.382Z,5.55
2023-03-26T02:54:53.457Z,5.53
2023-03-26T02:57:20.026Z,5.50
2023-03-26T02:59:46.379Z,5.30
2023-03-26T03:02:13.399Z,5.47
2023-03-26T03:04:40.402Z,6.10
2023-03-26T03:07:07.673Z,5.70
2023-03-26T03:09:34.628Z,6.13
2023-03-26T03:12:01.045Z,5.50
2023-03-26T03:14:27.456Z,6.50
2023-03-26T03:16:54.040Z,6.05
2023-03-26T03:19:20.593Z,6.50
2023-03-26T03:21:47.030Z,6.70
2023-03-26T03:24:13.932Z,5.90
2023-03-26T03:26:41.229Z,6.57
2023-03-26T03:29:07.679Z,6.30
2023-03-26T03:31:34.039Z,6.38
2023-03-26T03:34:00.430Z,6.40
2023-03-26T03:36:30.349Z,6.88
2023-03-26T03:39:02.169Z,6.70
2023-03-26T03:41:30.210Z,7.07
2023-03-26T03:43:58.868Z,7.53
2023-03-26T03:46:25.805Z,6.82
2023-03-26T03:48:52.203Z,6.53
2023-03-26T03:51:18.643Z,6.75
2023-03-26T03:53:46.025Z,6.80
2023-03-26T03:56:14.556Z,6.57
2023-03-26T03:58:41.626Z,6.53
2023-03-26T04:01:08.021Z,6.97
2023-03-26T04:03:38.713Z,6.80
2023-03-26T04:06:11.052Z,7.53
2023-03-26T04:08:37.450Z,7.53
2023-03-26T04:11:04.058Z,7.72
2023-03-26T04:13:30.718Z,8.32
2023-03-26T04:15:57.405Z,8.38
2023-03-26T04:18:24.076Z,7.68
2023-03-26T04:20:50.784Z,8.73
2023-03-26T04:23:18.425Z,8.70
2023-03-26T04:25:48.348Z,8.95
2023-03-26T04:28:26.411Z,9.00
2023-03-26T04:30:54.585Z,9.57
2023-03-26T04:33:21.230Z,9.40
2023-03-26T04:35:50.917Z,10.18
2023-03-26T04:38:18.487Z,10.27
2023-03-26T04:40:47.440Z,11.13
2023-03-26T04:43:16.353Z,12.38
2023-03-26T04:45:43.715Z,11.13
2023-03-26T04:48:14.251Z,11.75
2023-03-26T04:50:42.560Z,11.75
2023-03-26T04:53:13.372Z,11.48
2023-03-26T04:55:45.332Z,12.43
2023-03-26T04:58:13.931Z,12.02
2023-03-26T05:00:41.529Z,11.75
2023-03-26T05:03:11.608Z,12.32
2023-03-26T05:05:38.730Z,14.18
2023-03-26T05:08:05.582Z,12.93
2023-03-26T05:10:32.044Z,12.82
2023-03-26T05:12:58.611Z,13.25
2023-03-26T05:15:25.041Z,13.15
2023-03-26T05:17:51.771Z,12.50
2023-03-26T05:20:24.016Z,12.30
2023-03-26T05:22:50.506Z,11.85
2023-03-26T05:25:17.631Z,12.07
2023-03-26T05:27:44.931Z,12.05
2023-03-26T05:30:15.316Z,12.43
2023-03-26T05:32:42.197Z,12.38
2023-03-26T05:35:09.366Z,11.63
2023-03-26T05:37:37.634Z,13.40
2023-03-26T05:40:07.726Z,12.20
2023-03-26T05:42:34.076Z,12.00
2023-03-26T05:45:00.488Z,12.32
2023-03-26T05:47:27.428Z,12.23
2023-03-26T05:49:53.955Z,12.30
2023-03-26T05:52:20.487Z,12.18
2023-03-26T05:54:47.125Z,11.43
2023-03-26T05:57:13.673Z,10.80
2023-03-26T05:59:40.123Z,10.93
2023-03-26T06:02:06.521Z,11.80
2023-03-26T06:04:33.123Z,11.20
2023-03-26T06:06:59.664Z,11.50
2023-03-26T06:09:26.372Z,12.27
2023-03-26T06:11:52.766Z,10.82
2023-03-26T06:14:19.188Z,11.70
2023-03-26T06:16:45.648Z,12.18
2023-03-26T06:19:12.117Z,11.30
2023-03-26T06:21:38.655Z,11.93
2023-03-26T06:24:05.291Z,12.13
2023-03-26T06:26:31.761Z,11.88
2023-03-26T06:28:58.208Z,12.45
2023-03-26T06:31:24.604Z,12.25
2023-03-26T06:33:51.232Z,12.45
2023-03-26T06:36:17.688Z,11.90
2023-03-26T06:38:44.296Z,11.75
2023-03-26T06:41:10.955Z,11.98
2023-03-26T06:43:38.993Z,12.10
2023-03-26T06:46:05.761Z,13.05
2023-03-26T06:48:32.300Z,11.90
2023-03-26T06:50:58.718Z,11.65
2023-03-26T06:53:25.171Z,12.27
2023-03-26T06:55:53.635Z,11.75
2023-03-26T06:58:20.465Z,12.38
2023-03-26T07:00:46.988Z,11.90
2023-03-26T07:03:13.630Z,13.25
2023-03-26T07:05:43.216Z,12.23
2023-03-26T07:08:09.681Z,13.18
2023-03-26T07:10:36.105Z,12.77
2023-03-26T07:13:02.463Z,11.88
2023-03-26T07:15:29.122Z,12.43
2023-03-26T07:17:56.246Z,11.32
2023-03-26T07:20:23.068Z,12.02
2023-03-26T07:22:49.814Z,12.52
2023-03-26T07:25:17.555Z,11.55
2023-03-26T07:28:13.694Z,12.15
2023-03-26T07:30:58.241Z,13.38
2023-03-26T07:33:31.910Z,12.18
2023-03-26T07:36:21.559Z,12.75
2023-03-26T07:38:53.627Z,12.27
2023-03-26T07:41:29.186Z,11.18
2023-03-26T07:44:23.126Z,12.15
2023-03-26T07:46:53.285Z,11.40
2023-03-26T07:49:20.427Z,11.52
2023-03-26T07:51:47.888Z,11.00
2023-03-26T07:54:14.558Z,11.40
2023-03-26T07:56:58.038Z,11.77
2023-03-26T07:59:47.839Z,10.73
2023-03-26T08:02:37.025Z,11.27
2023-03-26T08:05:18.965Z,10.82
2023-03-26T08:08:10.624Z,10.23
2023-03-26T08:10:55.675Z,11.18
2023-03-26T08:13:28.971Z,10.50
2023-03-26T08:16:15.571Z,10.13
2023-03-26T08:18:56.426Z,9.50
2023-03-26T08:21:35.454Z,10.02
2023-03-26T08:24:27.789Z,9.70
2023-03-26T08:27:23.465Z,9.02
2023-03-26T08:30:09.597Z,9.88
2023-03-26T08:32:36.288Z,9.15
2023-03-26T08:35:04.239Z,8.65
2023-03-26T08:37:30.644Z,8.82
2023-03-26T08:39:57.513Z,9.35
2023-03-26T08:42:38.861Z,8.50
2023-03-26T08:45:38.845Z,7.95
2023-03-26T08:48:34.701Z,7.85
2023-03-26T08:51:14.048Z,6.90
2023-03-26T08:54:20.538Z,7.35
2023-03-26T08:57:20.386Z,6.68
2023-03-26T08:59:58.847Z,6.53
2023-03-26T09:02:53.439Z,5.78
2023-03-26T09:05:59.382Z,6.30
2023-03-26T09:08:53.722Z,6.28
2023-03-26T09:11:32.271Z,5.93
2023-03-26T09:14:33.934Z,5.68
2023-03-26T09:17:12.579Z,4.57
2023-03-26T09:19:52.690Z,4.00
2023-03-26T09:22:42.440Z,4.43
2023-03-26T09:25:21.243Z,4.43
2023-03-26T09:27:56.251Z,4.43
2023-03-26T09:30:36.161Z,4.18
2023-03-26T09:33:42.612Z,3.97
2023-03-26T09:36:20.498Z,4.57
2023-03-26T09:39:17.424Z,4.10
2023-03-26T09:41:48.448Z,4.13
2023-03-26T09:44:40.894Z,4.25
2023-03-26T09:47:28.641Z,4.68
2023-03-26T09:50:13.075Z,4.55
2023-03-26T09:53:02.862Z,4.30
2023-03-26T09:55:44.713Z,4.28
2023-03-26T09:58:42.183Z,4.75
2023-03-26T10:01:14.732Z,4.68
2023-03-26T10:04:01.868Z,5.30
2023-03-26T10:06:42.508Z,4.50
2023-03-26T10:09:31.076Z,4.53
2023-03-26T10:12:16.019Z,4.53
2023-03-26T10:15:00.779Z,5.47
2023-03-26T10:17:58.951Z,5.15
2023-03-26T10:21:19.133Z,4.57
2023-03-26T10:23:59.173Z,6.28
2023-03-26T10:26:42.865Z,5.28
2023-03-26T10:29:29.071Z,4.68
2023-03-26T10:32:09.932Z,5.22
2023-03-26T10:35:04.466Z,4.63
2023-03-26T10:37:44.512Z,5.10
2023-03-26T10:40:21.093Z,5.13
2023-03-26T10:43:01.655Z,5.00
2023-03-26T10:45:45.134Z,5.35
2023-03-26T10:48:33.371Z,5.40
2023-03-26T10:51:33.823Z,4.82
2023-03-26T10:54:11.990Z,4.95
2023-03-26T10:56:46.508Z,4.90
2023-03-26T10:59:14.351Z,4.72
2023-03-26T11:01:47.393Z,5.00
2023-03-26T11:04:22.323Z,5.53
2023-03-26T11:07:07.357Z,4.72
2023-03-26T11:09:54.365Z,4.50
2023-03-26T11:12:42.013Z,4.28
2023-03-26T11:15:14.439Z,4.28
2023-03-26T11:20:17.501Z,4.40
2023-03-26T11:23:11.849Z,4.30
2023-03-26T11:25:59.404Z,4.68
2023-03-26T11:29:03.972Z,4.50
2023-03-26T11:31:47.737Z,4.47
2023-03-26T11:34:18.546Z,4.88
2023-03-26T11:36:48.942Z,4.88
2023-03-26T11:39:26.988Z,4.68
2023-03-26T11:42:03.388Z,5.40
2023-03-26T11:44:34.586Z,4.28
2023-03-26T11:47:05.043Z,4.45
2023-03-26T11:49:32.214Z,4.60
2023-03-26T11:51:59.167Z,5.53
2023-03-26T11:54:25.669Z,4.90
2023-03-26T11:57:04.558Z,5.07
2023-03-26T11:59:49.084Z,4.35
2023-03-26T12:02:35.538Z,4.00
2023-03-26T12:05:26.325Z,4.10
2023-03-26T12:08:01.384Z,4.38
2023-03-26T12:10:39.072Z,4.60
2023-03-26T12:13:20.581Z,4.18
2023-03-26T12:15:47.152Z,3.88
2023-03-26T12:18:26.119Z,3.90
2023-03-26T12:21:11.366Z,3.80
2023-03-26T12:23:57.977Z,3.80
2023-03-26T12:26:41.914Z,3.92
2023-03-26T12:29:13.949Z,3.95
2023-03-26T12:31:55.484Z,3.40
2023-03-26T12:34:23.910Z,3.50
2023-03-26T12:36:55.618Z,3.30
2023-03-26T12:40:08.862Z,3.20
2023-03-26T12:44:49.205Z,3.35
2023-03-26T12:45:30.851Z,3.00
2023-03-26T12:48:04.031Z,3.25
2023-03-26T12:50:45.709Z,2.83
2023-03-26T12:53:24.507Z,2.97
2023-03-26T12:56:09.343Z,3.05
2023-03-26T12:58:51.078Z,3.08
2023-03-26T13:01:34.317Z,3.07
2023-03-26T13:04:08.345Z,2.95
2023-03-26T13:07:00.830Z,3.17
2023-03-26T13:10:16.845Z,3.78
2023-03-26T13:12:49.091Z,3.70
2023-03-26T13:15:37.099Z,3.72
2023-03-26T13:18:31.387Z,3.63
2023-03-26T13:21:00.101Z,3.60
2023-03-26T13:23:36.474Z,3.47
2023-03-26T13:26:14.380Z,3.60
2023-03-26T13:29:06.848Z,3.97
2023-03-26T13:31:41.884Z,4.38
2023-03-26T13:34:29.785Z,4.50
2023-03-26T13:37:15.921Z,4.60
2023-03-26T13:39:54.580Z,4.45
2023-03-26T13:42:44.195Z,5.60
2023-03-26T13:45:33.986Z,5.82
2023-03-26T13:48:02.300Z,6.10
2023-03-26T13:50:37.697Z,6.68
2023-03-26T13:53:37.054Z,6.45
2023-03-26T13:56:03.922Z,6.50
2023-03-26T13:59:01.201Z,6.95
2023-03-26T14:01:33.757Z,6.47
2023-03-26T14:04:33.562Z,7.00
2023-03-26T14:07:12.806Z,5.50
2023-03-26T14:09:56.075Z,6.32
2023-03-26T14:12:51.689Z,6.50
2023-03-26T14:15:24.766Z,5.80
2023-03-26T14:18:25.802Z,5.40
2023-03-26T14:21:18.002Z,5.53
2023-03-26T14:24:12.360Z,5.20
2023-03-26T14:26:54.486Z,5.85
2023-03-26T14:29:56.291Z,5.53
2023-03-26T14:32:33.260Z,5.63
2023-03-26T14:35:09.402Z,5.30
2023-03-26T14:38:00.390Z,4.65
2023-03-26T14:40:31.375Z,5.10
2023-03-26T14:43:09.640Z,5.65
2023-03-26T14:45:59.469Z,4.30
2023-03-26T14:48:37.030Z,4.38
2023-03-26T14:51:07.148Z,4.22
2023-03-26T14:53:36.462Z,4.55
2023-03-26T14:56:15.575Z,4.63
2023-03-26T14:59:21.534Z,4.53
2023-03-26T15:02:19.807Z,3.75
2023-03-26T15:05:21.968Z,3.80
2023-03-26T15:08:16.079Z,4.18
2023-03-26T15:11:07.159Z,3.38
2023-03-26T15:13:49.060Z,3.38
2023-03-26T15:16:55.929Z,3.20
2023-03-26T15:19:49.500Z,3.13
2023-03-26T15:22:53.894Z,2.85
2023-03-26T15:25:49.928Z,2.85
2023-03-26T15:28:49.802Z,3.55
2023-03-26T15:31:54.736Z,4.40
2023-03-26T15:34:39.586Z,2.97
2023-03-26T15:37:48.570Z,6.15
2023-03-26T15:40:23.859Z,3.15
2023-03-26T15:43:08.652Z,2.30
2023-03-26T15:45:44.313Z,3.40
2023-03-26T15:48:11.518Z,2.72
2023-03-26T15:50:56.575Z,3.00
2023-03-26T15:53:39.616Z,3.08
2023-03-26T15:56:14.121Z,2.88
2023-03-26T15:59:05.163Z,4.15
2023-03-26T16:02:04.006Z,3.60
2023-03-26T16:04:50.295Z,7.95
2023-03-26T16:07:38.894Z,7.88
2023-03-26T16:10:44.605Z,7.32
2023-03-26T16:13:24.251Z,5.50
2023-03-26T16:16:00.701Z,4.75
2023-03-26T16:18:35.734Z,6.53
2023-03-26T16:21:04.317Z,5.97
2023-03-26T16:23:47.522Z,3.80
2023-03-26T16:26:36.252Z,3.78
2023-03-26T16:29:24.607Z,3.13
2023-03-26T16:32:10.060Z,3.22
2023-03-26T16:34:48.153Z,3.63
2023-03-26T16:37:49.898Z,3.92
2023-03-26T16:40:16.486Z,5.20
2023-03-26T16:43:10.402Z,5.50
2023-03-26T16:45:51.938Z,4.47
2023-03-26T16:48:41.591Z,3.30
2023-03-26T16:51:25.599Z,3.67
2023-03-26T16:54:14.554Z,2.97
2023-03-26T16:56:50.563Z,3.97
2023-03-26T16:59:38.253Z,3.00
2023-03-26T17:02:27.786Z,3.50
2023-03-26T17:05:01.637Z,3.22
2023-03-26T17:07:48.568Z,3.30
2023-03-26T17:10:30.784Z,4.85
2023-03-26T17:13:00.362Z,4.28
2023-03-26T17:15:32.450Z,3.97
2023-03-26T17:18:25.468Z,3.20
2023-03-26T17:21:20.668Z,4.35
2023-03-26T17:23:57.349Z,3.45
2023-03-26T17:26:42.140Z,5.00
2023-03-26T17:29:27.327Z,8.23
2023-03-26T17:32:08.495Z,11.07
2023-03-26T17:34:37.799Z,9.88
2023-03-26T17:37:17.406Z,8.55
2023-03-26T17:39:43.701Z,7.70
2023-03-26T17:42:16.032Z,5.30
2023-03-26T17:44:45.675Z,4.68
2023-03-26T17:47:20.578Z,8.50
2023-03-26T17:49:50.973Z,5.82
2023-03-26T17:52:21.318Z,5.10
2023-03-26T17:54:50.427Z,3.42
2023-03-26T17:57:28.365Z,4.47
2023-03-26T17:59:59.067Z,2.72
2023-03-26T18:02:36.011Z,3.50
2023-03-26T18:05:04.765Z,4.05
2023-03-26T18:07:49.601Z,5.10
2023-03-26T18:10:39.031Z,5.57
2023-03-26T18:13:38.237Z,4.65
2023-03-26T18:16:17.374Z,3.15
2023-03-26T18:19:00.712Z,3.38
2023-03-26T18:21:33.028Z,3.97
2023-03-26T18:24:01.018Z,3.53
2023-03-26T18:26:40.022Z,3.38
2023-03-26T18:29:29.630Z,3.70
2023-03-26T18:32:02.554Z,5.20
2023-03-26T18:34:31.986Z,4.18
2023-03-26T18:37:08.482Z,4.78
2023-03-26T18:39:35.152Z,3.30
2023-03-26T18:42:01.728Z,4.13
2023-03-26T18:44:28.210Z,4.63
2023-03-26T18:46:55.367Z,3.28
2023-03-26T18:49:22.684Z,3.70
2023-03-26T18:51:56.894Z,3.60
2023-03-26T18:54:24.909Z,4.30
2023-03-26T18:56:52.743Z,4.03
2023-03-26T18:59:28.215Z,3.78
2023-03-26T19:01:59.261Z,4.00
2023-03-26T19:04:26.982Z,4.20
2023-03-26T19:06:55.059Z,3.05
2023-03-26T19:09:31.735Z,3.85
2023-03-26T19:12:22.824Z,3.95
2023-03-26T19:15:04.178Z,3.50
2023-03-26T19:17:35.040Z,3.17
2023-03-26T19:20:01.788Z,11.95
2023-03-26T19:22:29.228Z,7.97
2023-03-26T19:25:01.157Z,6.93
2023-03-26T19:27:27.905Z,4.95
2023-03-26T19:29:54.262Z,3.13
2023-03-26T19:32:29.261Z,3.17
2023-03-26T19:34:59.550Z,3.30
2023-03-26T19:37:29.927Z,2.30
2023-03-26T19:40:14.224Z,4.80
2023-03-26T19:42:44.728Z,4.80
2023-03-26T19:45:18.829Z,3.70
2023-03-26T19:47:50.542Z,3.65
2023-03-26T19:50:28.611Z,3.50
2023-03-26T19:53:22.030Z,5.18
2023-03-26T19:55:55.448Z,5.05
2023-03-26T19:58:21.901Z,3.85
2023-03-26T20:00:48.338Z,5.97
2023-03-26T20:03:16.710Z,3.92
2023-03-26T20:05:43.384Z,6.43
2023-03-26T20:08:14.279Z,4.80
2023-03-26T20:10:41.152Z,2.80
2023-03-26T20:13:16.302Z,2.35
2023-03-26T20:15:46.534Z,2.95
2023-03-26T20:18:12.986Z,1.85
2023-03-26T20:20:41.056Z,2.25
2023-03-26T20:23:14.049Z,2.15
2023-03-26T20:25:49.119Z,2.92
2023-03-26T20:28:18.970Z,2.28
2023-03-26T20:30:49.451Z,2.00
2023-03-26T20:33:19.568Z,5.07
2023-03-26T20:35:46.257Z,5.93
2023-03-26T20:38:12.705Z,5.78
2023-03-26T20:40:39.597Z,4.88
2023-03-26T20:43:12.028Z,2.92
2023-03-26T20:45:38.713Z,2.78
2023-03-26T20:48:05.242Z,2.22
2023-03-26T20:50:35.660Z,2.08
2023-03-26T20:53:02.445Z,2.25
2023-03-26T20:55:29.082Z,1.92
2023-03-26T20:57:55.612Z,1.88
2023-03-26T21:00:22.611Z,2.50
2023-03-26T21:02:54.746Z,2.03
2023-03-26T21:05:24.513Z,1.98
2023-03-26T21:07:52.515Z,2.45
2023-03-26T21:10:19.649Z,2.38
2023-03-26T21:12:55.654Z,2.22
2023-03-26T21:15:23.755Z,2.85
2023-03-26T21:17:51.956Z,2.33
2023-03-26T21:20:19.573Z,2.20
2023-03-26T21:23:03.906Z,2.25
2023-03-26T21:25:53.407Z,2.63
2023-03-26T21:28:42.572Z,1.95
2023-03-26T21:31:22.444Z,2.53
2023-03-26T21:33:49.491Z,2.60
2023-03-26T21:36:18.552Z,2.00
2023-03-26T21:38:45.461Z,2.45
2023-03-26T21:41:41.331Z,2.25
2023-03-26T21:44:08.502Z,2.17
2023-03-26T21:46:35.397Z,2.55
2023-03-26T21:49:01.976Z,2.30
2023-03-26T21:51:28.674Z,2.50
2023-03-26T21:53:55.412Z,2.88
2023-03-26T21:56:33.770Z,2.30
2023-03-26T21:59:07.830Z,2.17
2023-03-26T22:02:02.452Z,2.30
2023-03-26T22:04:49.183Z,2.10
2023-03-26T22:07:27.462Z,1.90
2023-03-26T22:09:54.032Z,2.05
2023-03-26T22:12:20.406Z,2.08
2023-03-26T22:14:46.822Z,1.95
2023-03-26T22:17:13.291Z,2.20
2023-03-26T22:19:39.733Z,2.58
2023-03-26T22:22:06.158Z,2.55
2023-03-26T22:24:32.756Z,2.25
2023-03-26T22:26:59.174Z,1.98
2023-03-26T22:29:25.547Z,1.83
2023-03-26T22:31:52.308Z,1.98
2023-03-26T22:34:19.673Z,2.22
2023-03-26T22:36:46.356Z,2.45
2023-03-26T22:39:12.760Z,2.35
2023-03-26T22:41:39.268Z,2.13
2023-03-26T22:44:19.132Z,2.22
2023-03-26T22:46:48.979Z,2.70
2023-03-26T22:49:15.795Z,2.05
2023-03-26T22:51:42.224Z,2.38
2023-03-26T22:54:09.394Z,2.20
2023-03-26T22:56:36.295Z,2.58
2023-03-26T22:59:03.710Z,3.10
2023-03-26T23:01:30.359Z,2.25
2023-03-26T23:03:57.576Z,2.22
2023-03-26T23:06:24.008Z,2.00
2023-03-26T23:08:51.260Z,2.20
2023-03-26T23:11:18.910Z,2.00
2023-03-26T23:13:46.100Z,2.13
2023-03-26T23:16:14.016Z,2.45
2023-03-26T23:18:41.229Z,2.47
2023-03-26T23:21:13.435Z,2.45
2023-03-26T23:23:40.116Z,2.03
2023-03-26T23:26:06.938Z,2.95
2023-03-26T23:28:34.439Z,2.40
2023-03-26T23:31:04.163Z,2.42
2023-03-26T23:33:34.133Z,2.30
2023-03-26T23:36:04.215Z,1.77
2023-03-26T23:38:43.604Z,1.58
2023-03-26T23:41:14.652Z,2.00
2023-03-26T23:43:54.645Z,2.08
2023-03-26T23:46:23.923Z,2.38
2023-03-26T23:48:51.189Z,1.55
2023-03-26T23:51:19.974Z,2.50
2023-03-26T23:53:47.191Z,2.58
2023-03-26T23:56:13.649Z,2.45
2023-03-26T23:58:40.270Z,2.20
